createdAt,value
2016-09-26T00:00:20.214Z,17.45
2016-09-26T00:00:42.012Z,17.41
2016-09-26T00:01:03.836Z,17.47
2016-09-26T00:01:25.634Z,17.41
2016-09-26T00:01:47.427Z,17.41
2016-09-26T00:02:09.276Z,17.48
2016-09-26T00:02:31.087Z,17.53
2016-09-26T00:02:52.866Z,17.55
2016-09-26T00:03:14.681Z,17.70
2016-09-26T00:03:36.412Z,17.80
2016-09-26T00:03:58.191Z,17.89
2016-09-26T00:04:19.948Z,18.04
2016-09-26T00:04:41.717Z,18.15
2016-09-26T00:05:03.469Z,18.28
2016-09-26T00:05:25.264Z,18.29
2016-09-26T00:05:47.037Z,18.17
2016-09-26T00:06:08.795Z,18.17
2016-09-26T00:06:30.575Z,18.18
2016-09-26T00:06:52.329Z,18.25
2016-09-26T00:07:14.057Z,18.24
2016-09-26T00:07:35.823Z,18.10
2016-09-26T00:07:57.656Z,17.97
2016-09-26T00:08:19.512Z,17.90
2016-09-26T00:08:41.369Z,17.83
2016-09-26T00:09:03.091Z,17.77
2016-09-26T00:09:24.834Z,17.64
2016-09-26T00:09:46.563Z,17.59
2016-09-26T00:10:08.332Z,17.47
2016-09-26T00:10:30.140Z,17.35
2016-09-26T00:10:51.884Z,17.27
2016-09-26T00:11:13.633Z,17.14
2016-09-26T00:11:35.382Z,17.10
2016-09-26T00:11:58.137Z,17.09
2016-09-26T00:12:19.869Z,17.00
2016-09-26T00:12:41.634Z,16.95
2016-09-26T00:13:03.583Z,16.94
2016-09-26T00:13:25.302Z,17.06
2016-09-26T00:13:47.110Z,17.15
2016-09-26T00:14:08.949Z,17.24
2016-09-26T00:14:30.716Z,17.33
2016-09-26T00:14:52.472Z,17.36
2016-09-26T00:15:14.290Z,17.44
2016-09-26T00:15:36.061Z,17.46
2016-09-26T00:15:57.797Z,17.51
2016-09-26T00:16:19.545Z,17.58
2016-09-26T00:16:41.359Z,17.55
2016-09-26T00:17:03.125Z,17.53
2016-09-26T00:17:24.879Z,17.53
2016-09-26T00:17:46.677Z,17.63
2016-09-26T00:18:08.469Z,17.57
2016-09-26T00:18:30.197Z,17.55
2016-09-26T00:18:51.942Z,17.55
2016-09-26T00:19:13.768Z,17.55
2016-09-26T00:19:35.555Z,17.54
2016-09-26T00:19:57.283Z,17.57
2016-09-26T00:20:19.084Z,17.59
2016-09-26T00:20:40.944Z,17.70
2016-09-26T00:21:02.674Z,17.65
2016-09-26T00:21:24.467Z,17.58
2016-09-26T00:22:12.934Z,17.53
2016-09-26T00:22:34.700Z,17.65
2016-09-26T00:22:56.490Z,17.69
2016-09-26T00:23:18.252Z,17.71
2016-09-26T00:23:40.025Z,17.72
2016-09-26T00:24:01.820Z,17.80
2016-09-26T00:24:23.549Z,17.72
2016-09-26T00:24:45.302Z,17.71
2016-09-26T00:25:07.083Z,17.71
2016-09-26T00:25:28.911Z,17.78
2016-09-26T00:25:50.630Z,17.64
2016-09-26T00:26:12.424Z,17.59
2016-09-26T00:26:34.184Z,17.45
2016-09-26T00:26:55.951Z,17.32
2016-09-26T00:27:17.790Z,17.33
2016-09-26T00:27:39.545Z,17.35
2016-09-26T00:28:01.382Z,17.20
2016-09-26T00:28:23.138Z,17.24
2016-09-26T00:28:44.962Z,17.35
2016-09-26T00:29:06.744Z,17.22
2016-09-26T00:29:28.511Z,17.10
2016-09-26T00:29:50.291Z,16.95
2016-09-26T00:30:12.019Z,16.89
2016-09-26T00:30:33.759Z,16.92
2016-09-26T00:30:55.535Z,16.98
2016-09-26T00:31:17.294Z,17.11
2016-09-26T00:31:39.094Z,17.25
2016-09-26T00:32:00.937Z,17.45
2016-09-26T00:32:22.736Z,17.55
2016-09-26T00:32:44.514Z,17.61
2016-09-26T00:33:06.352Z,17.66
2016-09-26T00:33:28.083Z,17.63
2016-09-26T00:33:49.835Z,17.61
2016-09-26T00:34:11.661Z,17.41
2016-09-26T00:34:33.452Z,17.27
2016-09-26T00:34:55.369Z,17.16
2016-09-26T00:35:17.113Z,17.04
2016-09-26T00:35:38.917Z,16.93
2016-09-26T00:36:00.658Z,16.88
2016-09-26T00:36:22.447Z,16.88
2016-09-26T00:36:44.159Z,16.94
2016-09-26T00:37:05.887Z,16.87
2016-09-26T00:37:27.602Z,16.82
2016-09-26T00:37:49.359Z,16.86
2016-09-26T00:38:11.068Z,16.90
2016-09-26T00:38:32.914Z,16.92
2016-09-26T00:38:54.668Z,17.09
2016-09-26T00:39:16.395Z,17.25
2016-09-26T00:39:38.169Z,17.33
2016-09-26T00:39:59.986Z,17.50
2016-09-26T00:40:21.781Z,17.53
2016-09-26T00:40:43.659Z,17.65
2016-09-26T00:41:05.420Z,17.75
2016-09-26T00:41:27.144Z,17.79
2016-09-26T00:41:48.959Z,17.84
2016-09-26T00:42:10.729Z,17.91
2016-09-26T00:42:32.633Z,17.93
2016-09-26T00:42:54.355Z,17.82
2016-09-26T00:43:16.114Z,17.86
2016-09-26T00:43:37.848Z,17.69
2016-09-26T00:44:00.604Z,17.60
2016-09-26T00:44:22.405Z,17.57
2016-09-26T00:44:45.122Z,17.58
2016-09-26T00:45:06.856Z,17.70
2016-09-26T00:45:28.629Z,17.66
2016-09-26T00:45:50.422Z,17.72
2016-09-26T00:46:12.143Z,17.73
2016-09-26T00:46:33.876Z,17.76
2016-09-26T00:46:55.624Z,17.78
2016-09-26T00:47:17.391Z,17.80
2016-09-26T00:47:39.106Z,17.63
2016-09-26T00:48:00.838Z,17.42
2016-09-26T00:48:22.575Z,17.36
2016-09-26T00:48:44.319Z,17.33
2016-09-26T00:49:06.063Z,17.16
2016-09-26T00:49:27.794Z,17.10
2016-09-26T00:49:49.526Z,17.21
2016-09-26T00:50:11.378Z,17.32
2016-09-26T00:50:33.212Z,17.32
2016-09-26T00:50:54.937Z,17.34
2016-09-26T00:51:16.655Z,17.32
2016-09-26T00:51:38.389Z,17.29
2016-09-26T00:52:00.114Z,17.19
2016-09-26T00:52:21.859Z,17.10
2016-09-26T00:52:43.596Z,17.07
2016-09-26T00:53:05.350Z,17.07
2016-09-26T00:53:27.086Z,17.02
2016-09-26T00:53:48.882Z,16.95
2016-09-26T00:54:10.630Z,17.04
2016-09-26T00:54:32.348Z,17.10
2016-09-26T00:54:54.127Z,17.26
2016-09-26T00:55:15.845Z,17.32
2016-09-26T00:55:37.565Z,17.24
2016-09-26T00:55:59.443Z,17.22
2016-09-26T00:56:21.145Z,17.20
2016-09-26T00:56:42.892Z,17.12
2016-09-26T00:57:04.700Z,17.12
2016-09-26T00:57:26.492Z,17.18
2016-09-26T00:57:48.304Z,17.29
2016-09-26T00:58:10.063Z,17.37
2016-09-26T00:58:31.836Z,17.36
2016-09-26T00:58:53.641Z,17.22
2016-09-26T00:59:15.392Z,17.21
2016-09-26T00:59:37.464Z,17.22
2016-09-26T00:59:59.247Z,17.10
2016-09-26T01:00:21.017Z,17.03
2016-09-26T01:00:42.784Z,17.11
2016-09-26T01:01:04.569Z,17.19
2016-09-26T01:01:26.306Z,17.11
2016-09-26T01:01:48.179Z,17.08
2016-09-26T01:02:09.926Z,17.01
2016-09-26T01:02:31.641Z,17.08
2016-09-26T01:02:53.474Z,17.27
2016-09-26T01:03:15.257Z,17.25
2016-09-26T01:03:37.046Z,17.23
2016-09-26T01:03:58.741Z,17.22
2016-09-26T01:04:20.460Z,17.29
2016-09-26T01:04:42.195Z,17.20
2016-09-26T01:05:03.971Z,17.33
2016-09-26T01:05:25.709Z,17.45
2016-09-26T01:05:47.523Z,17.58
2016-09-26T01:06:09.299Z,17.50
2016-09-26T01:06:31.151Z,17.42
2016-09-26T01:06:53.021Z,17.41
2016-09-26T01:07:14.764Z,17.44
2016-09-26T01:07:36.553Z,17.49
2016-09-26T01:07:58.396Z,17.49
2016-09-26T01:08:20.143Z,17.44
2016-09-26T01:08:41.865Z,17.32
2016-09-26T01:09:03.609Z,17.16
2016-09-26T01:09:25.353Z,17.07
2016-09-26T01:09:47.084Z,17.09
2016-09-26T01:10:08.979Z,17.24
2016-09-26T01:10:30.826Z,17.35
2016-09-26T01:10:52.569Z,17.40
2016-09-26T01:11:14.303Z,17.34
2016-09-26T01:11:40.825Z,17.36
2016-09-26T01:12:02.592Z,17.35
2016-09-26T01:12:24.320Z,17.34
2016-09-26T01:12:46.060Z,17.20
2016-09-26T01:13:07.795Z,17.09
2016-09-26T01:13:29.513Z,17.19
2016-09-26T01:13:51.235Z,17.25
2016-09-26T01:14:12.954Z,17.40
2016-09-26T01:14:34.732Z,17.49
2016-09-26T01:14:56.570Z,17.47
2016-09-26T01:15:18.317Z,17.44
2016-09-26T01:15:40.074Z,17.35
2016-09-26T01:16:01.900Z,17.38
2016-09-26T01:16:23.642Z,17.42
2016-09-26T01:16:45.437Z,17.32
2016-09-26T01:17:07.181Z,17.24
2016-09-26T01:17:29.060Z,17.31
2016-09-26T01:17:55.577Z,17.32
2016-09-26T01:18:17.545Z,17.26
2016-09-26T01:18:39.342Z,17.17
2016-09-26T01:19:01.123Z,17.18
2016-09-26T01:19:22.944Z,17.22
2016-09-26T01:19:44.724Z,17.24
2016-09-26T01:20:06.462Z,17.29
2016-09-26T01:20:28.251Z,17.33
2016-09-26T01:20:49.996Z,17.34
2016-09-26T01:21:11.802Z,17.33
2016-09-26T01:21:33.620Z,17.31
2016-09-26T01:21:55.431Z,17.30
2016-09-26T01:22:17.171Z,17.29
2016-09-26T01:22:39.069Z,17.33
2016-09-26T01:23:00.942Z,17.32
2016-09-26T01:23:23.034Z,17.34
2016-09-26T01:23:44.784Z,17.23
2016-09-26T01:24:06.563Z,17.12
2016-09-26T01:24:28.297Z,17.05
2016-09-26T01:24:50.090Z,17.04
2016-09-26T01:25:11.831Z,16.99
2016-09-26T01:25:33.643Z,16.91
2016-09-26T01:25:55.392Z,16.83
2016-09-26T01:26:17.120Z,16.85
2016-09-26T01:26:38.868Z,17.02
2016-09-26T01:27:00.625Z,17.19
2016-09-26T01:27:22.371Z,17.23
2016-09-26T01:27:44.134Z,17.29
2016-09-26T01:28:05.888Z,17.23
2016-09-26T01:28:27.652Z,17.25
2016-09-26T01:28:49.544Z,17.30
2016-09-26T01:29:11.331Z,17.40
2016-09-26T01:29:33.059Z,17.39
2016-09-26T01:29:54.826Z,17.47
2016-09-26T01:30:16.583Z,17.43
2016-09-26T01:30:38.384Z,17.41
2016-09-26T01:31:00.190Z,17.31
2016-09-26T01:31:21.927Z,17.30
2016-09-26T01:31:43.655Z,17.32
2016-09-26T01:32:05.390Z,17.12
2016-09-26T01:32:27.104Z,16.95
2016-09-26T01:32:48.823Z,16.82
2016-09-26T01:33:10.561Z,16.72
2016-09-26T01:33:32.311Z,16.68
2016-09-26T01:33:54.163Z,16.80
2016-09-26T01:34:42.523Z,16.93
2016-09-26T01:35:04.545Z,16.93
2016-09-26T01:35:26.388Z,17.02
2016-09-26T01:35:48.202Z,17.03
2016-09-26T01:36:09.927Z,16.85
2016-09-26T01:36:31.748Z,16.79
2016-09-26T01:36:53.662Z,16.83
2016-09-26T01:37:15.478Z,16.93
2016-09-26T01:37:37.239Z,16.90
2016-09-26T01:37:58.976Z,16.80
2016-09-26T01:38:20.698Z,16.67
2016-09-26T01:38:42.474Z,16.60
2016-09-26T01:39:04.292Z,16.63
2016-09-26T01:39:26.065Z,16.67
2016-09-26T01:39:47.988Z,16.64
2016-09-26T01:40:09.856Z,16.53
2016-09-26T01:40:31.588Z,16.50
2016-09-26T01:40:53.448Z,16.54
2016-09-26T01:41:15.181Z,16.51
2016-09-26T01:41:36.913Z,16.50
2016-09-26T01:41:58.679Z,16.47
2016-09-26T01:42:20.443Z,16.56
2016-09-26T01:42:42.293Z,16.61
2016-09-26T01:43:04.077Z,16.63
2016-09-26T01:43:25.841Z,16.63
2016-09-26T01:43:47.662Z,16.63
2016-09-26T01:44:16.762Z,16.72
2016-09-26T01:44:35.981Z,16.90
2016-09-26T01:44:57.835Z,16.83
2016-09-26T01:45:19.601Z,16.78
2016-09-26T01:45:41.326Z,16.80
2016-09-26T01:46:03.151Z,16.72
2016-09-26T01:46:25.013Z,16.67
2016-09-26T01:46:47.293Z,16.81
2016-09-26T01:47:09.064Z,16.84
2016-09-26T01:47:30.788Z,16.92
2016-09-26T01:47:52.513Z,16.87
2016-09-26T01:48:14.242Z,16.86
2016-09-26T01:48:35.965Z,16.83
2016-09-26T01:48:57.796Z,16.64
2016-09-26T01:49:19.521Z,16.58
2016-09-26T01:49:41.255Z,16.64
2016-09-26T01:50:02.974Z,16.64
2016-09-26T01:50:24.721Z,16.52
2016-09-26T01:50:46.441Z,16.57
2016-09-26T01:51:08.172Z,16.58
2016-09-26T01:51:29.918Z,16.47
2016-09-26T01:51:51.713Z,16.39
2016-09-26T01:52:13.646Z,16.28
2016-09-26T01:52:35.477Z,16.27
2016-09-26T01:52:57.270Z,16.27
2016-09-26T01:53:23.796Z,16.20
2016-09-26T01:53:45.556Z,16.25
2016-09-26T01:54:07.292Z,16.30
2016-09-26T01:54:29.096Z,16.38
2016-09-26T01:54:50.830Z,16.55
2016-09-26T01:55:12.658Z,16.70
2016-09-26T01:55:34.616Z,16.71
2016-09-26T01:55:56.376Z,16.71
2016-09-26T01:56:18.168Z,16.85
2016-09-26T01:56:44.670Z,16.91
2016-09-26T01:57:06.424Z,16.86
2016-09-26T01:57:28.171Z,16.84
2016-09-26T01:57:49.896Z,16.79
2016-09-26T01:58:16.388Z,16.89
2016-09-26T01:58:38.114Z,16.98
2016-09-26T01:59:04.620Z,17.04
2016-09-26T01:59:26.431Z,17.03
2016-09-26T01:59:48.258Z,16.97
2016-09-26T02:00:10.023Z,16.99
2016-09-26T02:00:31.736Z,17.04
2016-09-26T02:00:53.592Z,16.89
2016-09-26T02:01:17.950Z,16.79
2016-09-26T02:01:39.669Z,16.81
2016-09-26T02:02:01.426Z,16.91
2016-09-26T02:02:23.160Z,16.95
2016-09-26T02:02:44.905Z,16.95
2016-09-26T02:03:06.666Z,17.02
2016-09-26T02:03:28.459Z,16.91
2016-09-26T02:03:50.184Z,16.78
2016-09-26T02:04:11.912Z,16.74
2016-09-26T02:04:33.636Z,16.73
2016-09-26T02:04:58.200Z,16.67
2016-09-26T02:05:19.929Z,16.73
2016-09-26T02:05:46.501Z,16.88
2016-09-26T02:06:08.272Z,16.96
2016-09-26T02:06:30.085Z,17.04
2016-09-26T02:06:51.836Z,17.01
2016-09-26T02:07:13.609Z,16.99
2016-09-26T02:07:35.393Z,16.96
2016-09-26T02:07:57.224Z,16.97
2016-09-26T02:08:18.959Z,16.86
2016-09-26T02:08:40.689Z,16.77
2016-09-26T02:09:02.565Z,16.76
2016-09-26T02:09:27.164Z,16.69
2016-09-26T02:09:48.960Z,16.62
2016-09-26T02:10:10.812Z,16.63
2016-09-26T02:10:32.683Z,16.76
2016-09-26T02:10:54.444Z,16.76
2016-09-26T02:11:16.225Z,16.82
2016-09-26T02:11:37.989Z,16.81
2016-09-26T02:11:59.784Z,16.77
2016-09-26T02:12:21.618Z,16.72
2016-09-26T02:12:43.362Z,16.80
2016-09-26T02:13:05.217Z,16.82
2016-09-26T02:13:27.033Z,16.94
2016-09-26T02:13:48.882Z,16.80
2016-09-26T02:14:10.680Z,16.66
2016-09-26T02:14:32.434Z,16.52
2016-09-26T02:14:54.277Z,16.44
2016-09-26T02:15:16.012Z,16.40
2016-09-26T02:15:37.804Z,16.41
2016-09-26T02:15:59.685Z,16.47
2016-09-26T02:16:24.245Z,16.53
2016-09-26T02:16:45.967Z,16.59
2016-09-26T02:17:07.692Z,16.61
2016-09-26T02:17:29.404Z,16.48
2016-09-26T02:17:51.151Z,16.47
2016-09-26T02:18:12.908Z,16.35
2016-09-26T02:18:34.726Z,16.27
2016-09-26T02:18:56.492Z,16.35
2016-09-26T02:19:18.232Z,16.33
2016-09-26T02:19:40.012Z,16.49
2016-09-26T02:20:01.817Z,16.58
2016-09-26T02:20:23.560Z,16.67
2016-09-26T02:20:45.475Z,16.80
2016-09-26T02:21:07.225Z,16.90
2016-09-26T02:21:29.045Z,16.95
2016-09-26T02:21:50.860Z,16.90
2016-09-26T02:22:12.644Z,16.87
2016-09-26T02:22:34.384Z,16.61
2016-09-26T02:22:56.120Z,16.45
2016-09-26T02:23:17.893Z,16.39
2016-09-26T02:23:39.612Z,16.31
2016-09-26T02:24:01.340Z,16.23
2016-09-26T02:24:23.065Z,16.16
2016-09-26T02:24:44.818Z,16.13
2016-09-26T02:25:06.617Z,16.20
2016-09-26T02:25:28.471Z,16.28
2016-09-26T02:25:50.236Z,16.34
2016-09-26T02:26:12.226Z,16.41
2016-09-26T02:26:33.968Z,16.53
2016-09-26T02:26:55.683Z,16.61
2016-09-26T02:27:17.440Z,16.69
2016-09-26T02:27:39.200Z,16.83
2016-09-26T02:28:00.969Z,16.89
2016-09-26T02:28:22.717Z,16.96
2016-09-26T02:28:44.463Z,17.03
2016-09-26T02:29:06.229Z,17.08
2016-09-26T02:29:28.255Z,17.09
2016-09-26T02:29:50.025Z,17.14
2016-09-26T02:30:11.811Z,17.16
2016-09-26T02:30:33.577Z,17.18
2016-09-26T02:30:55.320Z,17.21
2016-09-26T02:31:21.970Z,17.18
2016-09-26T02:31:43.728Z,17.18
2016-09-26T02:32:05.526Z,17.20
2016-09-26T02:32:27.478Z,17.12
2016-09-26T02:32:49.222Z,17.03
2016-09-26T02:33:10.982Z,17.05
2016-09-26T02:33:32.834Z,17.10
2016-09-26T02:33:54.575Z,17.16
2016-09-26T02:34:16.300Z,17.15
2016-09-26T02:34:38.028Z,17.07
2016-09-26T02:34:59.750Z,16.97
2016-09-26T02:35:21.475Z,16.84
2016-09-26T02:35:43.248Z,16.69
2016-09-26T02:36:05.145Z,16.72
2016-09-26T02:36:26.927Z,16.76
2016-09-26T02:36:48.653Z,16.73
2016-09-26T02:37:10.390Z,16.65
2016-09-26T02:37:32.115Z,16.59
2016-09-26T02:37:53.840Z,16.53
2016-09-26T02:38:15.578Z,16.41
2016-09-26T02:38:38.399Z,16.39
2016-09-26T02:39:00.115Z,16.40
2016-09-26T02:39:21.862Z,16.39
2016-09-26T02:39:43.609Z,16.38
2016-09-26T02:40:05.434Z,16.30
2016-09-26T02:40:27.372Z,16.20
2016-09-26T02:40:49.145Z,16.17
2016-09-26T02:41:11.872Z,16.14
2016-09-26T02:41:33.587Z,16.15
2016-09-26T02:41:55.309Z,16.12
2016-09-26T02:42:17.014Z,16.08
2016-09-26T02:42:38.752Z,16.07
2016-09-26T02:43:00.554Z,16.24
2016-09-26T02:43:22.349Z,16.35
2016-09-26T02:43:44.072Z,16.38
2016-09-26T02:44:05.798Z,16.39
2016-09-26T02:44:27.562Z,16.42
2016-09-26T02:44:49.354Z,16.48
2016-09-26T02:45:11.141Z,16.48
2016-09-26T02:45:32.963Z,16.43
2016-09-26T02:45:55.821Z,16.29
2016-09-26T02:46:17.654Z,16.18
2016-09-26T02:46:39.533Z,16.16
2016-09-26T02:47:01.382Z,16.27
2016-09-26T02:47:23.110Z,16.24
2016-09-26T02:47:44.832Z,16.33
2016-09-26T02:48:06.572Z,16.39
2016-09-26T02:48:28.301Z,16.33
2016-09-26T02:48:50.093Z,16.30
2016-09-26T02:49:11.941Z,16.43
2016-09-26T02:49:33.655Z,16.58
2016-09-26T02:49:55.401Z,16.78
2016-09-26T02:50:24.515Z,16.70
2016-09-26T02:50:46.301Z,16.69
2016-09-26T02:51:08.130Z,16.53
2016-09-26T02:51:30.916Z,16.51
2016-09-26T02:51:52.698Z,16.39
2016-09-26T02:52:14.554Z,16.41
2016-09-26T02:52:36.371Z,16.36
2016-09-26T02:53:00.781Z,16.40
2016-09-26T02:53:22.612Z,16.41
2016-09-26T02:53:44.496Z,16.35
2016-09-26T02:54:06.292Z,16.47
2016-09-26T02:54:28.030Z,16.33
2016-09-26T02:54:54.528Z,16.24
2016-09-26T02:55:16.400Z,16.20
2016-09-26T02:55:45.741Z,16.33
2016-09-26T02:56:07.489Z,16.46
2016-09-26T02:56:29.206Z,16.49
2016-09-26T02:56:50.963Z,16.53
2016-09-26T02:57:12.720Z,16.59
2016-09-26T02:57:34.508Z,16.63
2016-09-26T02:57:56.257Z,16.52
2016-09-26T02:58:18.017Z,16.57
2016-09-26T02:58:44.545Z,16.72
2016-09-26T02:59:06.378Z,16.70
2016-09-26T02:59:28.116Z,16.76
2016-09-26T02:59:49.866Z,16.86
2016-09-26T03:00:11.741Z,16.85
2016-09-26T03:00:33.898Z,16.93
2016-09-26T03:00:55.645Z,17.03
2016-09-26T03:01:17.431Z,17.00
2016-09-26T03:01:44.135Z,17.01
2016-09-26T03:02:05.905Z,17.13
2016-09-26T03:02:27.709Z,17.27
2016-09-26T03:02:49.527Z,17.36
2016-09-26T03:03:11.392Z,17.38
2016-09-26T03:03:33.267Z,17.33
2016-09-26T03:03:55.062Z,17.30
2016-09-26T03:04:16.936Z,17.24
2016-09-26T03:04:41.623Z,17.18
2016-09-26T03:05:03.344Z,17.18
2016-09-26T03:05:25.060Z,17.12
2016-09-26T03:05:46.788Z,17.17
2016-09-26T03:06:08.516Z,17.24
2016-09-26T03:06:30.240Z,17.29
2016-09-26T03:06:54.375Z,17.30
2016-09-26T03:07:16.247Z,17.34
2016-09-26T03:07:37.992Z,17.29
2016-09-26T03:07:59.728Z,17.31
2016-09-26T03:08:21.463Z,17.16
2016-09-26T03:08:43.363Z,17.04
2016-09-26T03:09:07.415Z,16.95
2016-09-26T03:09:29.166Z,16.98
2016-09-26T03:09:50.887Z,17.02
2016-09-26T03:10:17.546Z,17.12
2016-09-26T03:10:39.256Z,17.12
2016-09-26T03:11:00.996Z,17.18
2016-09-26T03:11:22.730Z,17.17
2016-09-26T03:11:44.545Z,17.21
2016-09-26T03:12:06.315Z,17.27
2016-09-26T03:12:28.043Z,17.21
2016-09-26T03:12:49.754Z,17.20
2016-09-26T03:13:11.614Z,17.23
2016-09-26T03:13:38.382Z,17.11
2016-09-26T03:14:00.097Z,17.05
2016-09-26T03:14:21.892Z,16.92
2016-09-26T03:14:48.395Z,16.81
2016-09-26T03:15:10.116Z,16.78
2016-09-26T03:15:31.851Z,16.84
2016-09-26T03:15:53.569Z,16.86
2016-09-26T03:16:15.296Z,16.92
2016-09-26T03:16:37.031Z,16.82
2016-09-26T03:16:58.785Z,16.70
2016-09-26T03:17:20.497Z,16.71
2016-09-26T03:17:42.260Z,16.83
2016-09-26T03:18:03.989Z,16.82
2016-09-26T03:18:25.707Z,16.90
2016-09-26T03:18:50.037Z,16.84
2016-09-26T03:19:11.745Z,16.75
2016-09-26T03:19:33.486Z,16.67
2016-09-26T03:19:55.234Z,16.67
2016-09-26T03:20:16.990Z,16.76
2016-09-26T03:20:38.721Z,16.77
2016-09-26T03:21:00.478Z,16.80
2016-09-26T03:21:22.183Z,16.87
2016-09-26T03:21:43.925Z,16.79
2016-09-26T03:22:05.633Z,16.72
2016-09-26T03:22:27.370Z,16.72
2016-09-26T03:22:49.092Z,16.61
2016-09-26T03:23:10.817Z,16.55
2016-09-26T03:23:32.584Z,16.52
2016-09-26T03:24:03.947Z,16.47
2016-09-26T03:24:25.675Z,16.45
2016-09-26T03:24:50.305Z,16.42
2016-09-26T03:25:12.062Z,16.46
2016-09-26T03:25:33.783Z,16.39
2016-09-26T03:25:55.508Z,16.31
2016-09-26T03:26:17.227Z,16.34
2016-09-26T03:26:38.987Z,16.38
2016-09-26T03:27:00.722Z,16.40
2016-09-26T03:27:22.472Z,16.47
2016-09-26T03:27:44.199Z,16.55
2016-09-26T03:28:05.960Z,16.53
2016-09-26T03:28:27.678Z,16.51
2016-09-26T03:28:49.405Z,16.56
2016-09-26T03:29:11.144Z,16.67
2016-09-26T03:29:35.627Z,16.85
2016-09-26T03:29:57.352Z,16.90
2016-09-26T03:30:19.114Z,16.79
2016-09-26T03:30:40.868Z,16.71
2016-09-26T03:31:02.590Z,16.74
2016-09-26T03:31:24.308Z,16.67
2016-09-26T03:31:46.100Z,16.70
2016-09-26T03:32:07.835Z,16.67
2016-09-26T03:32:29.544Z,16.74
2016-09-26T03:32:51.328Z,16.77
2016-09-26T03:33:13.093Z,16.77
2016-09-26T03:33:34.810Z,16.81
2016-09-26T03:33:56.535Z,16.82
2016-09-26T03:34:18.279Z,16.76
2016-09-26T03:34:39.995Z,16.54
2016-09-26T03:35:01.735Z,16.37
2016-09-26T03:35:23.483Z,16.26
2016-09-26T03:35:45.252Z,16.16
2016-09-26T03:36:06.977Z,16.08
2016-09-26T03:36:28.715Z,15.99
2016-09-26T03:36:50.535Z,15.99
2016-09-26T03:37:12.270Z,15.88
2016-09-26T03:37:34.052Z,15.85
2016-09-26T03:37:58.747Z,15.87
2016-09-26T03:38:20.459Z,15.90
2016-09-26T03:38:42.218Z,15.98
2016-09-26T03:39:08.819Z,16.16
2016-09-26T03:39:30.541Z,16.21
2016-09-26T03:39:57.042Z,16.41
2016-09-26T03:40:18.782Z,16.40
2016-09-26T03:40:40.510Z,16.47
2016-09-26T03:41:02.369Z,16.43
2016-09-26T03:41:24.123Z,16.42
2016-09-26T03:41:45.851Z,16.41
2016-09-26T03:42:07.591Z,16.43
2016-09-26T03:42:29.317Z,16.40
2016-09-26T03:42:51.038Z,16.40
2016-09-26T03:43:12.809Z,16.50
2016-09-26T03:43:34.732Z,16.64
2016-09-26T03:43:56.464Z,16.72
2016-09-26T03:44:44.715Z,16.73
2016-09-26T03:45:06.536Z,16.75
2016-09-26T03:45:28.277Z,16.83
2016-09-26T03:45:54.785Z,16.89
2016-09-26T03:46:16.529Z,16.94
2016-09-26T03:46:38.251Z,16.85
2016-09-26T03:46:59.979Z,16.74
2016-09-26T03:47:21.729Z,16.57
2016-09-26T03:47:43.447Z,16.51
2016-09-26T03:48:05.198Z,16.50
2016-09-26T03:48:26.939Z,16.41
2016-09-26T03:48:48.689Z,16.36
2016-09-26T03:49:39.588Z,16.27
2016-09-26T03:50:01.320Z,16.28
2016-09-26T03:50:23.073Z,16.31
2016-09-26T03:50:44.947Z,16.39
2016-09-26T03:51:06.676Z,16.43
2016-09-26T03:51:28.423Z,16.46
2016-09-26T03:51:50.193Z,16.56
2016-09-26T03:52:11.962Z,16.64
2016-09-26T03:52:33.684Z,16.68
2016-09-26T03:52:55.438Z,16.69
2016-09-26T03:53:17.163Z,16.58
2016-09-26T03:53:38.916Z,16.49
2016-09-26T03:54:00.638Z,16.37
2016-09-26T03:54:22.385Z,16.39
2016-09-26T03:54:44.085Z,16.44
2016-09-26T03:55:05.880Z,16.50
2016-09-26T03:55:27.655Z,16.55
2016-09-26T03:55:49.389Z,16.63
2016-09-26T03:56:11.128Z,16.67
2016-09-26T03:56:32.859Z,16.69
2016-09-26T03:56:54.605Z,16.65
2016-09-26T03:57:16.344Z,16.59
2016-09-26T03:57:39.070Z,16.49
2016-09-26T03:58:00.789Z,16.37
2016-09-26T03:58:22.525Z,16.32
2016-09-26T03:58:44.257Z,16.29
2016-09-26T03:59:08.453Z,16.30
2016-09-26T03:59:30.241Z,16.43
2016-09-26T03:59:51.966Z,16.37
2016-09-26T04:00:13.700Z,16.23
2016-09-26T04:00:35.435Z,16.11
2016-09-26T04:00:57.228Z,15.89
2016-09-26T04:01:23.788Z,15.81
2016-09-26T04:01:45.517Z,15.72
2016-09-26T04:02:07.375Z,15.76
2016-09-26T04:02:29.105Z,15.87
2016-09-26T04:02:50.833Z,15.81
2016-09-26T04:03:12.574Z,15.74
2016-09-26T04:03:34.294Z,15.62
2016-09-26T04:03:56.037Z,15.56
2016-09-26T04:04:17.777Z,15.57
2016-09-26T04:04:39.502Z,15.59
2016-09-26T04:05:01.246Z,15.66
2016-09-26T04:05:22.977Z,15.76
2016-09-26T04:05:44.713Z,15.80
2016-09-26T04:06:06.436Z,15.85
2016-09-26T04:06:28.279Z,15.92
2016-09-26T04:06:50.021Z,15.89
2016-09-26T04:07:11.761Z,15.91
2016-09-26T04:07:33.482Z,15.92
2016-09-26T04:07:55.208Z,15.97
2016-09-26T04:08:16.936Z,15.99
2016-09-26T04:08:38.674Z,16.11
2016-09-26T04:09:00.416Z,16.18
2016-09-26T04:09:22.160Z,16.13
2016-09-26T04:09:43.930Z,16.18
2016-09-26T04:10:05.675Z,16.25
2016-09-26T04:10:27.397Z,16.19
2016-09-26T04:10:51.649Z,16.26
2016-09-26T04:11:13.377Z,16.19
2016-09-26T04:11:35.105Z,16.15
2016-09-26T04:11:56.824Z,16.10
2016-09-26T04:12:18.557Z,16.08
2016-09-26T04:12:40.287Z,15.98
2016-09-26T04:13:02.030Z,16.03
2016-09-26T04:13:23.762Z,16.10
2016-09-26T04:13:45.559Z,16.12
2016-09-26T04:14:07.297Z,16.09
2016-09-26T04:14:29.026Z,16.17
2016-09-26T04:14:50.757Z,16.25
2016-09-26T04:15:12.487Z,16.28
2016-09-26T04:15:34.225Z,16.27
2016-09-26T04:15:55.938Z,16.32
2016-09-26T04:16:22.280Z,16.46
2016-09-26T04:16:44.024Z,16.47
2016-09-26T04:17:05.746Z,16.43
2016-09-26T04:17:27.462Z,16.46
2016-09-26T04:17:49.188Z,16.46
2016-09-26T04:18:15.685Z,16.48
2016-09-26T04:18:37.417Z,16.53
2016-09-26T04:18:59.137Z,16.45
2016-09-26T04:19:20.894Z,16.44
2016-09-26T04:19:42.703Z,16.43
2016-09-26T04:20:04.581Z,16.37
2016-09-26T04:20:26.323Z,16.22
2016-09-26T04:20:48.046Z,16.21
2016-09-26T04:21:14.562Z,16.33
2016-09-26T04:21:39.162Z,16.31
2016-09-26T04:22:01.009Z,16.31
2016-09-26T04:22:22.746Z,16.32
2016-09-26T04:22:44.475Z,16.36
2016-09-26T04:23:06.228Z,16.20
2016-09-26T04:23:27.957Z,16.14
2016-09-26T04:23:49.720Z,16.09
2016-09-26T04:24:11.473Z,16.07
2016-09-26T04:24:33.211Z,16.07
2016-09-26T04:24:54.945Z,15.97
2016-09-26T04:25:16.686Z,15.86
2016-09-26T04:25:38.420Z,15.85
2016-09-26T04:26:00.164Z,15.86
2016-09-26T04:26:21.913Z,15.81
2016-09-26T04:26:43.640Z,15.74
2016-09-26T04:27:05.354Z,15.74
2016-09-26T04:27:27.103Z,15.76
2016-09-26T04:27:48.888Z,15.78
2016-09-26T04:28:10.605Z,15.79
2016-09-26T04:28:32.388Z,15.85
2016-09-26T04:28:54.114Z,15.86
2016-09-26T04:29:15.908Z,15.84
2016-09-26T04:29:37.646Z,15.90
2016-09-26T04:29:59.518Z,15.90
2016-09-26T04:30:21.255Z,15.95
2016-09-26T04:30:42.964Z,16.09
2016-09-26T04:31:04.688Z,16.22
2016-09-26T04:31:26.443Z,16.28
2016-09-26T04:31:48.169Z,16.41
2016-09-26T04:32:12.753Z,16.30
2016-09-26T04:32:37.533Z,16.18
2016-09-26T04:32:59.313Z,16.07
2016-09-26T04:33:23.770Z,16.02
2016-09-26T04:33:45.495Z,16.05
2016-09-26T04:34:07.227Z,16.08
2016-09-26T04:34:28.965Z,16.09
2016-09-26T04:34:50.715Z,15.98
2016-09-26T04:35:12.582Z,15.90
2016-09-26T04:35:34.321Z,15.80
2016-09-26T04:35:56.073Z,15.75
2016-09-26T04:36:17.796Z,15.70
2016-09-26T04:36:39.527Z,15.79
2016-09-26T04:37:01.274Z,15.83
2016-09-26T04:37:23.018Z,15.84
2016-09-26T04:37:44.814Z,15.74
2016-09-26T04:38:06.526Z,15.75
2016-09-26T04:38:28.257Z,15.80
2016-09-26T04:38:49.998Z,15.95
2016-09-26T04:39:11.741Z,16.07
2016-09-26T04:40:00.977Z,16.08
2016-09-26T04:40:22.715Z,15.98
2016-09-26T04:40:44.456Z,15.87
2016-09-26T04:41:06.241Z,15.79
2016-09-26T04:41:27.982Z,15.86
2016-09-26T04:41:49.735Z,15.83
2016-09-26T04:42:11.463Z,15.81
2016-09-26T04:42:33.201Z,15.91
2016-09-26T04:42:54.967Z,15.91
2016-09-26T04:43:16.715Z,15.94
2016-09-26T04:43:38.478Z,15.96
2016-09-26T04:44:00.212Z,15.98
2016-09-26T04:44:21.956Z,16.04
2016-09-26T04:44:43.703Z,15.91
2016-09-26T04:45:05.450Z,15.77
2016-09-26T04:45:28.327Z,15.62
2016-09-26T04:45:50.059Z,15.51